Nome, AK

11:43 PM AKDT on August 24, 2016 (GMT -0800)
Golovin

Weather History for PAGL - March, 2013

Change the Weather History Date:

Saturday, March 9, 2013

  Actual Average Record
Temperature  
Mean Temperature 23 °F -  
Max Temperature 32 °F - - ()
Min Temperature 14 °F - - ()
Degree Days  
Heating Degree Days 42    
Moisture  
Dew Point 17 °F    
Average Humidity 87    
Maximum Humidity 100    
Minimum Humidity 63    
Precipitation  
Precipitation 0.76 in - - ()
Sea Level Pressure  
Sea Level Pressure 29.74 in    
Wind  
Wind Speed 12 mph (South)    
Max Wind Speed 25 mph    
Max Gust Speed 32 mph    
Visibility 6 miles    
Events      
T = Trace of Precipitation, MM = Missing Value Source: NWS Daily Summary

Daily Weather History Graph

Daily Weather History Graph

Search for Another Location

Airport or City:

Trip Planner

Search our weather history database for the weather conditions in past years. The results will help you decide how hot, cold, wet, or windy it might be!

Date:

Astronomy

Mar. 09, 2013 Rise Set
Actual Time 8:30 AM AKST 7:36 PM AKST
Civil Twilight 7:42 AM AKST 8:24 PM AKST
Nautical Twilight 6:45 AM AKST 9:21 PM AKST
Astronomical Twilight 5:45 AM AKST 10:22 PM AKST
Moon 7:34 AM AKST (3/9) 5:27 PM AKST (3/9)
Length of Visible Light 12h 41m
Length of Day
11h 05m
Waning Crescent, 5% of the Moon is Illuminated
Mar 9
Waning Crescent
Mar 11
New
Mar 19
First Quarter
Mar 27
Full
Apr 2
Last Quarter

Hourly Weather History & Observations

Time (AKST) Temp. Windchill Dew Point Humidity Pressure Visibility Wind Dir Wind Speed Gust Speed Precip Events Conditions
12:16 AM 32.0 °F 24.2 °F 30.2 °F 93% 29.41 in 7.0 mi WSW 9.2 mph - N/A   Overcast
12:36 AM 30.2 °F 24.3 °F 28.4 °F 93% 29.43 in 10.0 mi SW 5.8 mph 16.1 mph N/A   Overcast
12:56 AM 28.4 °F 20.4 °F 26.6 °F 93% 29.43 in 9.0 mi SW 8.1 mph 17.3 mph N/A   Overcast
1:16 AM 28.4 °F 19.1 °F 26.6 °F 93% 29.44 in 9.0 mi SW 10.4 mph 19.6 mph N/A   Overcast
1:36 AM 28.4 °F 18.0 °F 26.6 °F 93% 29.46 in 4.0 mi SW 12.7 mph 17.3 mph N/A   Mostly Cloudy
1:56 AM 26.6 °F 14.7 °F 26.6 °F 100% 29.47 in 3.0 mi WSW 15.0 mph - N/A   Overcast
2:16 AM 26.6 °F 16.2 °F 26.6 °F 100% 29.48 in 8.0 mi SW 11.5 mph 17.3 mph N/A   Overcast
2:36 AM 26.6 °F 16.2 °F 24.8 °F 93% 29.50 in 5.0 mi SW 11.5 mph 18.4 mph N/A   Overcast
2:56 AM 26.6 °F 17.5 °F 24.8 °F 93% 29.51 in 8.0 mi SW 9.2 mph - N/A   Overcast
3:16 AM 26.6 °F 18.2 °F 24.8 °F 93% 29.53 in 5.0 mi SW 8.1 mph - N/A   Overcast
3:36 AM 24.8 °F 16.9 °F 23.0 °F 93% 29.54 in 5.0 mi SW 6.9 mph - N/A   Overcast
3:56 AM 24.8 °F 17.9 °F 23.0 °F 93% 29.56 in 10.0 mi SW 5.8 mph - N/A   Overcast
4:16 AM 24.8 °F 14.0 °F 21.2 °F 86% 29.57 in 3.0 mi WSW 11.5 mph 16.1 mph N/A   Overcast
4:36 AM 23.0 °F 11.7 °F 21.2 °F 93% 29.58 in 8.0 mi WSW 11.5 mph - N/A   Overcast
4:56 AM 23.0 °F 13.1 °F 21.2 °F 93% 29.60 in 10.0 mi WSW 9.2 mph - N/A   Overcast
5:16 AM 21.2 °F 10.9 °F 19.4 °F 93% 29.61 in 10.0 mi WSW 9.2 mph 17.3 mph N/A   Overcast
5:36 AM 21.2 °F 9.5 °F 17.6 °F 86% 29.62 in 10.0 mi WSW 11.5 mph 17.3 mph N/A   Overcast
5:56 AM 19.4 °F 6.6 °F 17.6 °F 93% 29.63 in 8.0 mi SW 12.7 mph 18.4 mph N/A   Overcast
6:16 AM 19.4 °F 7.2 °F 15.8 °F 86% 29.65 in 10.0 mi WSW 11.5 mph 18.4 mph N/A   Overcast
6:36 AM 19.4 °F 8.6 °F 15.8 °F 86% 29.67 in 10.0 mi SW 9.2 mph 17.3 mph N/A   Overcast
6:56 AM 17.6 °F 3.7 °F 15.8 °F 93% 29.68 in 10.0 mi SW 13.8 mph 19.6 mph N/A   Overcast
7:16 AM 17.6 °F 4.3 °F 14.0 °F 86% 29.68 in 10.0 mi WSW 12.7 mph 21.9 mph N/A   Overcast
7:36 AM 15.8 °F 1.4 °F 12.2 °F 86% 29.70 in 10.0 mi WSW 13.8 mph 20.7 mph N/A   Scattered Clouds
7:56 AM 15.8 °F 1.4 °F 12.2 °F 86% 29.71 in 10.0 mi WSW 13.8 mph 20.7 mph 0.01 in   Mostly Cloudy
8:16 AM 15.8 °F 3.4 °F 12.2 °F 86% 29.73 in 10.0 mi WSW 10.4 mph 17.3 mph N/A   Mostly Cloudy
8:36 AM 15.8 °F 3.4 °F 10.4 °F 79% 29.74 in 10.0 mi WSW 10.4 mph 20.7 mph N/A   Mostly Cloudy
8:56 AM 15.8 °F 4.2 °F 10.4 °F 79% 29.76 in 10.0 mi WSW 9.2 mph 16.1 mph N/A   Overcast
9:16 AM 15.8 °F 5.1 °F 12.2 °F 86% 29.77 in 10.0 mi WSW 8.1 mph - N/A   Overcast
9:36 AM 15.8 °F 4.2 °F 12.2 °F 86% 29.78 in 10.0 mi SW 9.2 mph - N/A   Overcast
9:56 AM 15.8 °F 3.4 °F 12.2 °F 86% 29.79 in 10.0 mi WSW 10.4 mph 17.3 mph N/A   Overcast
10:16 AM 15.8 °F 6.1 °F 12.2 °F 86% 29.80 in 9.0 mi WSW 6.9 mph - 0.02 in   Overcast
10:36 AM 15.8 °F 4.2 °F 12.2 °F 86% 29.82 in 3.0 mi WSW 9.2 mph - 0.02 in   Overcast
10:56 AM 15.8 °F 2.1 °F 12.2 °F 86% 29.82 in 3.0 mi SW 12.7 mph - 0.02 in   Overcast
11:16 AM 17.6 °F 5.7 °F 14.0 °F 86% 29.83 in 2.0 mi SW 10.4 mph - N/A   Overcast
11:36 AM 17.6 °F 5.7 °F 14.0 °F 86% 29.84 in 2.5 mi SW 10.4 mph - 0.01 in   Overcast
11:56 AM 17.6 °F 3.2 °F 12.2 °F 79% 29.84 in 1.8 mi SSW 15.0 mph - 0.01 in   Overcast
12:16 PM 17.6 °F 5.7 °F 12.2 °F 79% 29.85 in 4.0 mi SW 10.4 mph - 0.08 in   Overcast
12:36 PM 17.6 °F 5.7 °F 12.2 °F 79% 29.86 in 0.5 mi SW 10.4 mph - 0.12 in   Overcast
12:56 PM 17.6 °F 5.7 °F 12.2 °F 79% 29.86 in 2.5 mi SSW 10.4 mph - 0.18 in   Overcast
1:16 PM 17.6 °F 2.2 °F 10.4 °F 73% 29.87 in 8.0 mi South 17.3 mph - 0.09 in   Mostly Cloudy
1:36 PM 15.8 °F 2.1 °F 10.4 °F 79% 29.88 in 10.0 mi South 12.7 mph - 0.10 in   Scattered Clouds
1:56 PM 14.0 °F 0.5 °F 12.2 °F 93% 29.89 in 10.0 mi SSE 11.5 mph - 0.10 in   Mostly Cloudy
2:16 PM 14.0 °F 1.2 °F 14.0 °F 100% 29.89 in 10.0 mi SSE 10.4 mph - 0.02 in   Mostly Cloudy
2:36 PM 15.8 °F 4.2 °F 15.8 °F 100% 29.89 in 10.0 mi SE 9.2 mph - 0.03 in   Overcast
2:56 PM 15.8 °F 2.7 °F 15.8 °F 100% 29.89 in 4.0 mi ESE 11.5 mph - 0.06 in   Mostly Cloudy
3:16 PM 15.8 °F 4.2 °F 10.4 °F 79% 29.88 in 7.0 mi ESE 9.2 mph - N/A   Overcast
3:36 PM 17.6 °F 5.0 °F 8.6 °F 68% 29.88 in 1.5 mi SE 11.5 mph - 0.11 in   Overcast
3:56 PM 17.6 °F 9.3 °F 8.6 °F 68% 29.87 in 4.0 mi ESE 5.8 mph - 0.22 in   Overcast
4:16 PM 19.4 °F 6.0 °F 8.6 °F 63% 29.86 in 10.0 mi SSE 13.8 mph - 0.03 in   Overcast
4:36 PM 19.4 °F 7.9 °F 8.6 °F 63% 29.86 in 10.0 mi SSE 10.4 mph - 0.04 in   Overcast
4:56 PM 21.2 °F 7.8 °F 10.4 °F 63% 29.85 in 10.0 mi ESE 15.0 mph 18.4 mph 0.09 in   Overcast
5:16 PM 19.4 °F 2.5 °F 10.4 °F 68% 29.84 in 9.0 mi ESE 23.0 mph - 0.03 in   Overcast
5:36 PM 19.4 °F 2.5 °F 14.0 °F 80% 29.83 in 1.5 mi ESE 23.0 mph - 0.03 in   Overcast
5:56 PM 19.4 °F 1.8 °F 17.6 °F 93% 29.82 in 0.2 mi ESE 25.3 mph - 0.03 in   Overcast
6:16 PM 19.4 °F 1.8 °F 19.4 °F 100% 29.81 in 0.5 mi ESE 25.3 mph - N/A   Overcast
6:36 PM 21.2 °F 4.9 °F 21.2 °F 100% 29.81 in 0.2 mi ESE 23.0 mph 28.8 mph N/A   Overcast
6:56 PM 21.2 °F 4.5 °F 15.8 °F 80% 29.80 in 0.8 mi ESE 24.2 mph - N/A   Overcast
7:16 PM 23.0 °F 6.6 °F 15.8 °F 74% 29.80 in 0.8 mi SE 25.3 mph 29.9 mph N/A   Overcast
7:36 PM 23.0 °F 8.3 °F 23.0 °F 100% 29.81 in 1.0 mi SE 19.6 mph 32.2 mph N/A   Overcast
7:56 PM 24.8 °F 9.6 °F 23.0 °F 93% 29.81 in 1.2 mi ESE 23.0 mph 27.6 mph 0.01 in   Overcast
8:16 PM 23.0 °F 8.0 °F 19.4 °F 86% 29.81 in 1.5 mi SE 20.7 mph 31.1 mph N/A   Overcast
8:36 PM 23.0 °F 8.7 °F 19.4 °F 86% 29.81 in 1.5 mi SE 18.4 mph 27.6 mph N/A   Overcast
8:56 PM 24.8 °F 10.7 °F 24.8 °F 100% 29.81 in 2.0 mi SE 19.6 mph - N/A   Overcast
9:16 PM 24.8 °F 10.3 °F 23.0 °F 93% 29.80 in 2.0 mi ESE 20.7 mph 26.5 mph N/A   Overcast
9:36 PM 24.8 °F 11.5 °F 19.4 °F 80% 29.80 in 1.8 mi ESE 17.3 mph - N/A   Overcast
9:56 PM 24.8 °F 10.3 °F 19.4 °F 80% 29.80 in 1.5 mi SE 20.7 mph 25.3 mph N/A   Overcast
10:16 PM 24.8 °F 11.1 °F 24.8 °F 100% 29.80 in 1.5 mi ESE 18.4 mph - 0.03 in   Overcast
10:36 PM 24.8 °F 10.0 °F 24.8 °F 100% 29.79 in 1.2 mi ESE 21.9 mph 27.6 mph 0.03 in   Overcast
10:56 PM 24.8 °F 11.5 °F 21.2 °F 86% 29.80 in 1.0 mi East 17.3 mph - 0.03 in   Overcast
11:16 PM 24.8 °F 10.7 °F 21.2 °F 86% 29.80 in 1.0 mi East 19.6 mph 27.6 mph N/A   Overcast
11:36 PM 24.8 °F 10.7 °F 19.4 °F 80% 29.80 in 1.2 mi East 19.6 mph 25.3 mph N/A   Overcast
11:56 PM 24.8 °F 10.3 °F 21.2 °F 86% 29.80 in 1.5 mi East 20.7 mph - N/A   Overcast